Time;durP1;ratioP1;P1;durP2;ratioP2;P2;SDS_P1;SDS_P2;PMS_P1;PMS_P2;Temp;Humidity;BMP_temperature;BMP_pressure;BME280_temperature;BME280_humidity;BME280_pressure;Samples;Min_cycle;Max_cycle;Signal;HPM_P1;HPM_P2
2021/12/24 00:01:10;;;;;;;1.88;1.55;;;5.50;99.90;;;;;;5120309;28;20055;-84
2021/12/24 00:03:35;;;;;;;0.80;0.80;;;5.60;99.90;;;;;;5119462;28;20083;-83
2021/12/24 00:06:03;;;;;;;1.50;1.40;;;5.60;99.90;;;;;;5120413;28;20519;-84
2021/12/24 00:08:29;;;;;;;0.88;0.88;;;5.60;99.90;;;;;;5119249;28;20399;-86
2021/12/24 00:11:01;;;;;;;1.75;1.45;;;5.60;99.90;;;;;;5119377;28;20039;-84
2021/12/24 00:13:36;;;;;;;0.90;0.90;;;5.60;99.90;;;;;;5118178;28;20468;-85
2021/12/24 00:18:45;;;;;;;1.25;0.98;;;5.70;99.90;;;;;;5117000;28;20100;-85
2021/12/24 00:22:09;;;;;;;1.83;0.93;;;5.70;99.90;;;;;;5117244;28;20051;-87
2021/12/24 00:35:29;;;;;;;1.60;1.50;;;5.80;99.90;;;;;;5042007;28;20434;-86
2021/12/24 00:37:55;;;;;;;1.52;1.42;;;5.90;99.90;;;;;;5108282;28;20086;-84
2021/12/24 00:40:21;;;;;;;1.80;1.70;;;5.90;99.90;;;;;;5115760;28;20075;-86
2021/12/24 00:42:55;;;;;;;1.23;1.13;;;5.90;99.90;;;;;;5116755;28;20039;-84
2021/12/24 00:45:23;;;;;;;1.73;1.35;;;5.90;99.90;;;;;;5116690;28;20050;-84
2021/12/24 00:47:49;;;;;;;1.48;0.85;;;6.00;99.90;;;;;;5116671;28;20039;-85
2021/12/24 00:50:19;;;;;;;0.82;0.82;;;6.00;99.90;;;;;;5116374;28;20044;-87
2021/12/24 00:52:48;;;;;;;3.05;1.98;;;6.00;99.90;;;;;;5116896;28;20060;-85
2021/12/24 00:55:17;;;;;;;0.98;0.98;;;6.00;99.90;;;;;;5116594;28;20088;-85
2021/12/24 00:57:45;;;;;;;1.35;1.25;;;6.00;99.90;;;;;;5116440;28;20044;-85
2021/12/24 01:00:28;;;;;;;0.70;0.70;;;6.00;99.90;;;;;;5116846;28;20130;-84
2021/12/24 01:02:55;;;;;;;1.05;0.88;;;6.10;99.90;;;;;;5117052;28;20047;-85
2021/12/24 01:05:22;;;;;;;;;;;6.10;99.90;;;;;;5116597;28;20050;-84
2021/12/24 01:07:49;;;;;;;5.15;3.53;;;6.20;99.90;;;;;;5116760;28;19926;-84
2021/12/24 01:10:21;;;;;;;0.85;0.85;;;6.20;99.90;;;;;;5115857;28;20148;-87
2021/12/24 01:12:46;;;;;;;2.72;1.20;;;6.20;99.90;;;;;;5115011;28;20044;-84
2021/12/24 01:15:14;;;;;;;1.30;1.20;;;6.20;99.90;;;;;;5115988;28;20046;-86
2021/12/24 01:18:07;;;;;;;1.05;1.02;;;6.20;99.90;;;;;;5115841;28;20044;-84
2021/12/24 01:25:55;;;;;;;1.85;1.75;;;6.30;99.90;;;;;;5115663;28;20090;-84
2021/12/24 01:44:35;;;;;;;;;;;6.60;99.90;;;;;;5115062;28;20416;-83
2021/12/24 01:47:04;;;;;;;1.48;1.25;;;6.50;99.90;;;;;;5114096;28;19930;-85
2021/12/24 01:49:30;;;;;;;1.05;0.80;;;;;;;;;;5115082;28;20408;-85
2021/12/24 01:51:57;;;;;;;0.60;0.60;;;6.50;99.90;;;;;;5115263;28;20115;-83
2021/12/24 01:54:23;;;;;;;0.60;0.60;;;6.60;99.90;;;;;;5114311;28;20100;-84
2021/12/24 01:56:49;;;;;;;0.93;0.93;;;6.60;99.90;;;;;;5115180;28;20138;-87
2021/12/24 01:59:15;;;;;;;3.03;2.05;;;6.40;99.90;;;;;;5113735;28;20047;-85
2021/12/24 02:01:41;;;;;;;0.60;0.60;;;6.60;99.90;;;;;;5115366;28;20051;-82
2021/12/24 02:04:07;;;;;;;1.08;1.08;;;6.60;99.90;;;;;;5114990;28;20498;-84
2021/12/24 02:06:33;;;;;;;0.63;0.63;;;6.60;99.90;;;;;;5114916;28;20044;-83
2021/12/24 02:08:58;;;;;;;0.60;0.60;;;6.70;99.90;;;;;;5114948;28;20039;-85
2021/12/24 02:11:25;;;;;;;0.77;0.77;;;6.70;99.90;;;;;;5113733;28;20055;-85
2021/12/24 02:13:53;;;;;;;0.82;0.82;;;6.70;99.90;;;;;;5114816;28;20048;-84
2021/12/24 02:29:58;;;;;;;0.85;0.70;;;6.80;99.90;;;;;;5116967;28;20051;-85
2021/12/24 02:32:24;;;;;;;0.60;0.60;;;6.80;99.90;;;;;;5116176;28;20051;-85
2021/12/24 02:34:50;;;;;;;0.50;0.50;;;6.90;99.90;;;;;;5114759;28;20069;-83
2021/12/24 02:37:17;;;;;;;0.77;0.77;;;6.90;99.90;;;;;;5113159;28;20040;-85
2021/12/24 02:39:43;;;;;;;1.00;0.93;;;7.00;99.90;;;;;;5114564;28;20066;-84
2021/12/24 02:42:21;;;;;;;0.73;0.73;;;7.10;99.90;;;;;;5114589;28;20040;-85
2021/12/24 02:44:48;;;;;;;0.50;0.50;;;7.00;99.90;;;;;;5114539;28;20126;-87
2021/12/24 02:55:02;;;;;;;0.70;0.70;;;7.10;99.90;;;;;;5114767;28;20014;-85
2021/12/24 02:57:30;;;;;;;1.13;1.02;;;7.10;99.90;;;;;;5113192;28;20040;-82
2021/12/24 03:00:02;;;;;;;0.60;0.60;;;7.10;99.90;;;;;;5113190;28;20082;-83
2021/12/24 03:02:30;;;;;;;0.60;0.60;;;7.10;99.90;;;;;;5114248;28;20082;-85
2021/12/24 03:04:56;;;;;;;0.50;0.50;;;7.20;99.90;;;;;;5114170;28;20039;-86
2021/12/24 03:07:22;;;;;;;2.15;1.95;;;7.20;99.90;;;;;;5114108;28;20187;-85
2021/12/24 03:09:47;;;;;;;0.63;0.63;;;7.30;99.90;;;;;;5112946;28;20399;-85
2021/12/24 03:12:13;;;;;;;0.57;0.57;;;7.20;99.90;;;;;;5114152;28;20043;-84
2021/12/24 03:14:39;;;;;;;1.38;1.02;;;7.20;99.90;;;;;;5114362;28;20043;-84
2021/12/24 03:17:10;;;;;;;0.60;0.60;;;7.30;99.90;;;;;;5113644;28;20498;-87
2021/12/24 03:19:36;;;;;;;1.40;1.30;;;7.30;99.90;;;;;;5114071;28;20048;-85
2021/12/24 03:24:47;;;;;;;1.02;1.02;;;7.30;99.90;;;;;;5112766;28;20055;-86
2021/12/24 03:27:15;;;;;;;0.70;0.70;;;7.40;99.90;;;;;;5114118;28;20047;-84
2021/12/24 03:29:41;;;;;;;0.60;0.60;;;7.40;99.90;;;;;;5113308;28;20043;-81
2021/12/24 03:32:07;;;;;;;0.50;0.50;;;7.40;99.90;;;;;;5114051;28;20066;-85
2021/12/24 03:34:33;;;;;;;1.50;1.40;;;7.40;99.90;;;;;;5114278;28;20522;-85
2021/12/24 03:37:00;;;;;;;0.60;0.60;;;7.50;99.90;;;;;;5114095;28;20050;-85
2021/12/24 03:39:26;;;;;;;0.70;0.70;;;7.50;99.90;;;;;;5113882;28;20403;-84
2021/12/24 03:41:51;;;;;;;0.70;0.70;;;7.50;99.90;;;;;;5112904;28;20044;-85
2021/12/24 03:44:19;;;;;;;0.50;0.50;;;7.50;99.90;;;;;;5113960;28;20047;-81
2021/12/24 03:49:19;;;;;;;0.50;0.50;;;7.50;99.90;;;;;;5115288;28;19964;-84
2021/12/24 03:52:00;;;;;;;2.10;0.85;;;7.50;99.90;;;;;;5116603;28;20108;-85
2021/12/24 03:57:09;;;;;;;0.60;0.60;;;7.60;99.90;;;;;;5117723;28;20087;-84
2021/12/24 03:59:35;;;;;;;0.50;0.50;;;7.60;99.90;;;;;;5117189;28;20091;-82
2021/12/24 04:02:00;;;;;;;0.50;0.50;;;7.60;99.90;;;;;;5116956;28;20048;-85
2021/12/24 04:04:26;;;;;;;0.60;0.60;;;7.70;99.90;;;;;;5117552;28;20467;-82
2021/12/24 04:06:51;;;;;;;0.88;0.88;;;7.70;99.90;;;;;;5117464;28;20077;-85
2021/12/24 04:09:17;;;;;;;0.60;0.60;;;7.70;99.90;;;;;;5117511;28;20122;-85
2021/12/24 04:11:43;;;;;;;0.50;0.50;;;7.70;99.90;;;;;;5117585;28;20043;-83
2021/12/24 04:14:09;;;;;;;0.50;0.50;;;7.70;99.90;;;;;;5117207;28;20055;-83
2021/12/24 04:16:34;;;;;;;0.70;0.70;;;7.70;99.90;;;;;;5117164;28;20054;-83
2021/12/24 04:27:15;;;;;;;0.60;0.60;;;7.80;99.90;;;;;;5074187;28;20098;-81
2021/12/24 04:29:40;;;;;;;0.93;0.93;;;7.90;99.90;;;;;;5099437;28;20056;-85
2021/12/24 04:32:14;;;;;;;2.30;1.15;;;7.80;99.90;;;;;;5118362;28;20453;-83
2021/12/24 04:34:43;;;;;;;0.55;0.55;;;7.90;99.90;;;;;;5118840;28;20044;-81
2021/12/24 04:37:50;;;;;;;1.55;1.45;;;7.80;99.90;;;;;;5118107;28;20075;-84
2021/12/24 04:51:01;;;;;;;1.08;0.98;;;7.90;99.90;;;;;;5115865;28;20062;-83
2021/12/24 04:51:10;;;;;;;0.55;0.50;;;8.10;99.90;;;;;;5116334;28;20487;-83
2021/12/24 05:02:09;;;;;;;0.60;0.60;;;8.00;99.90;;;;;;5116432;28;20048;-86
2021/12/24 05:04:39;;;;;;;0.85;0.65;;;8.00;99.90;;;;;;5116401;28;20055;-85
2021/12/24 05:07:19;;;;;;;0.73;0.70;;;8.00;99.90;;;;;;5116313;28;20054;-85
2021/12/24 05:09:45;;;;;;;0.88;0.70;;;8.00;99.90;;;;;;5116365;28;20047;-86
2021/12/24 05:12:10;;;;;;;0.70;0.70;;;8.00;99.90;;;;;;5114896;28;20051;-86
2021/12/24 05:14:36;;;;;;;0.75;0.65;;;8.00;99.90;;;;;;5116454;28;20040;-84
2021/12/24 05:22:35;;;;;;;2.42;1.05;;;8.00;99.90;;;;;;5119390;28;20055;-81
2021/12/24 05:25:01;;;;;;;0.85;0.85;;;8.10;99.90;;;;;;5120771;28;20076;-86
2021/12/24 05:27:27;;;;;;;0.63;0.63;;;8.00;99.90;;;;;;5115981;28;20044;-83
2021/12/24 05:29:53;;;;;;;0.50;0.50;;;8.00;99.90;;;;;;5115718;28;20050;-82
2021/12/24 05:32:19;;;;;;;1.97;1.67;;;8.00;99.90;;;;;;5116134;28;20049;-81
2021/12/24 05:34:45;;;;;;;0.70;0.70;;;8.00;99.90;;;;;;5115785;28;20281;-80
2021/12/24 05:37:10;;;;;;;7.78;2.67;;;8.10;99.90;;;;;;5115868;28;20051;-83
2021/12/24 05:39:36;;;;;;;1.25;1.15;;;8.10;99.90;;;;;;5115978;28;20097;-81
2021/12/24 05:42:03;;;;;;;1.38;1.27;;;8.50;99.90;;;;;;5114577;28;20466;-83
2021/12/24 05:44:29;;;;;;;1.35;1.25;;;8.00;99.90;;;;;;5115409;28;20071;-82
2021/12/24 05:46:54;;;;;;;1.30;1.20;;;8.00;99.90;;;;;;5114630;28;20086;-82
2021/12/24 05:49:20;;;;;;;0.77;0.77;;;8.00;99.90;;;;;;5115381;28;20074;-85
2021/12/24 05:51:45;;;;;;;1.85;1.30;;;8.00;99.90;;;;;;5115166;28;20100;-83
2021/12/24 05:54:12;;;;;;;0.60;0.60;;;8.00;99.90;;;;;;5114352;28;20126;-85
2021/12/24 05:56:38;;;;;;;1.50;1.40;;;8.00;99.90;;;;;;5115088;28;20047;-81
2021/12/24 05:59:05;;;;;;;0.60;0.60;;;8.10;99.90;;;;;;5115120;28;20075;-80
2021/12/24 06:01:31;;;;;;;1.13;1.02;;;8.00;99.90;;;;;;5115160;28;20083;-80
2021/12/24 06:03:56;;;;;;;1.60;1.50;;;8.00;99.90;;;;;;5114270;28;20079;-81
2021/12/24 06:06:25;;;;;;;1.15;0.98;;;8.00;99.90;;;;;;5113859;28;20079;-80
2021/12/24 06:08:51;;;;;;;0.73;0.73;;;8.10;99.90;;;;;;5113889;28;20399;-79
2021/12/24 06:11:16;;;;;;;3.22;1.75;;;8.10;99.90;;;;;;5113622;28;20043;-83
2021/12/24 06:13:42;;;;;;;0.75;0.75;;;8.10;99.90;;;;;;5115049;28;20043;-80
2021/12/24 06:16:09;;;;;;;1.67;1.58;;;8.00;99.90;;;;;;5115279;28;20086;-78
2021/12/24 06:18:38;;;;;;;1.65;1.55;;;8.00;99.90;;;;;;5114413;28;20093;-78
2021/12/24 06:21:04;;;;;;;1.13;1.05;;;8.10;99.90;;;;;;5113967;28;20134;-78
2021/12/24 06:23:30;;;;;;;0.98;0.88;;;8.10;99.90;;;;;;5113812;28;20522;-82
2021/12/24 06:25:58;;;;;;;1.42;1.15;;;8.10;99.90;;;;;;5113580;28;20380;-79
2021/12/24 06:28:24;;;;;;;1.00;0.98;;;8.10;99.90;;;;;;5114864;28;20040;-82
2021/12/24 06:30:51;;;;;;;1.52;1.42;;;8.10;99.90;;;;;;5114064;28;20051;-80
2021/12/24 06:33:17;;;;;;;1.35;1.23;;;8.10;99.90;;;;;;5115009;28;20043;-82
2021/12/24 06:35:43;;;;;;;3.03;1.65;;;8.10;99.90;;;;;;5114842;28;20050;-84
2021/12/24 06:38:09;;;;;;;0.63;0.63;;;8.10;99.90;;;;;;5114773;28;20065;-82
2021/12/24 06:40:35;;;;;;;0.85;0.75;;;8.10;99.90;;;;;;5113746;28;20047;-83
2021/12/24 06:43:01;;;;;;;0.50;0.50;;;8.10;99.90;;;;;;5113590;28;20055;-82
2021/12/24 06:45:27;;;;;;;0.70;0.70;;;8.10;99.90;;;;;;5113395;28;20079;-83
2021/12/24 06:47:56;;;;;;;2.28;2.13;;;8.10;99.90;;;;;;5096737;28;20047;-77
2021/12/24 06:50:22;;;;;;;1.38;1.27;;;8.10;99.90;;;;;;5113576;28;20054;-80
2021/12/24 06:52:48;;;;;;;0.70;0.70;;;8.10;99.90;;;;;;5114500;28;20051;-81
2021/12/24 06:55:13;;;;;;;1.00;0.95;;;8.10;99.90;;;;;;5114481;28;20126;-81
2021/12/24 06:57:41;;;;;;;0.70;0.70;;;8.10;99.90;;;;;;5114507;28;20383;-82
2021/12/24 07:00:10;;;;;;;1.50;1.15;;;8.10;99.90;;;;;;5096598;28;20054;-81
2021/12/24 07:02:36;;;;;;;1.48;1.38;;;8.10;99.90;;;;;;5114842;28;20056;-84
2021/12/24 07:05:02;;;;;;;0.50;0.50;;;8.00;99.90;;;;;;5115187;28;20403;-83
2021/12/24 07:07:28;;;;;;;1.58;1.23;;;8.00;99.90;;;;;;5117376;28;20039;-85
2021/12/24 07:09:53;;;;;;;5.40;2.50;;;8.10;99.90;;;;;;5114490;28;20100;-82
2021/12/24 07:12:19;;;;;;;2.75;1.48;;;8.10;99.90;;;;;;5097764;28;20039;-81
2021/12/24 07:14:46;;;;;;;0.85;0.85;;;8.00;99.90;;;;;;5130604;28;20076;-80
2021/12/24 07:17:12;;;;;;;1.15;1.05;;;8.00;99.90;;;;;;5120209;28;20058;-82
2021/12/24 07:19:38;;;;;;;0.75;0.73;;;8.00;99.90;;;;;;5114546;28;20543;-83
2021/12/24 07:22:04;;;;;;;0.77;0.77;;;8.10;99.90;;;;;;5113842;28;20122;-82
2021/12/24 07:24:30;;;;;;;1.23;1.10;;;8.00;99.90;;;;;;5117900;28;20047;-81
2021/12/24 07:26:55;;;;;;;0.50;0.50;;;8.00;99.90;;;;;;5118473;28;20377;-82
2021/12/24 07:29:21;;;;;;;0.80;0.73;;;8.00;99.90;;;;;;5118169;28;20035;-82
2021/12/24 07:31:47;;;;;;;0.70;0.70;;;7.90;99.90;;;;;;5118522;28;20472;-83
2021/12/24 07:34:12;;;;;;;1.10;0.95;;;7.90;99.90;;;;;;5116717;28;20039;-84
2021/12/24 07:36:38;;;;;;;1.15;1.10;;;7.90;99.90;;;;;;5130547;27;20050;-81
2021/12/24 07:39:04;;;;;;;0.65;0.65;;;8.00;99.90;;;;;;5117481;28;20035;-86
2021/12/24 07:41:30;;;;;;;2.53;2.35;;;7.90;99.90;;;;;;5117245;28;20131;-79
2021/12/24 07:43:57;;;;;;;0.80;0.80;;;7.90;99.90;;;;;;5117189;28;20135;-79
2021/12/24 07:46:25;;;;;;;0.65;0.65;;;7.90;99.90;;;;;;5117886;28;20051;-81
2021/12/24 07:48:52;;;;;;;2.45;0.68;;;7.90;99.90;;;;;;5116816;28;20169;-80
2021/12/24 07:54:03;;;;;;;0.70;0.70;;;7.90;99.90;;;;;;5117998;28;20089;-85
2021/12/24 07:56:31;;;;;;;0.60;0.60;;;7.90;99.90;;;;;;5117219;28;20040;-78
2021/12/24 07:58:58;;;;;;;0.77;0.77;;;7.90;99.90;;;;;;5117478;28;20290;-81
2021/12/24 08:01:25;;;;;;;0.98;0.95;;;7.90;99.90;;;;;;5117615;28;20124;-82
2021/12/24 08:03:52;;;;;;;0.70;0.70;;;7.90;99.90;;;;;;5116280;28;20051;-82
2021/12/24 08:06:20;;;;;;;0.50;0.50;;;7.90;99.90;;;;;;5118031;28;20617;-84
2021/12/24 08:08:45;;;;;;;0.70;0.70;;;7.90;99.90;;;;;;5117417;28;20130;-84
2021/12/24 08:11:11;;;;;;;0.70;0.70;;;7.90;99.90;;;;;;5150896;27;20079;-83
2021/12/24 08:13:37;;;;;;;0.65;0.65;;;7.90;99.90;;;;;;5117298;28;20048;-83
2021/12/24 08:16:03;;;;;;;0.88;0.88;;;7.80;99.90;;;;;;5138336;27;20044;-85
2021/12/24 08:18:28;;;;;;;0.80;0.80;;;7.90;99.90;;;;;;5121184;28;20039;-82
2021/12/24 08:20:54;;;;;;;0.50;0.50;;;7.80;99.90;;;;;;5117166;28;20092;-83
2021/12/24 08:23:19;;;;;;;0.50;0.50;;;7.90;99.90;;;;;;5117164;28;20079;-86
2021/12/24 08:25:45;;;;;;;0.50;0.50;;;7.90;99.90;;;;;;5115861;28;20120;-86
2021/12/24 08:28:11;;;;;;;0.50;0.50;;;10.10;99.90;;;;;;5117248;28;20054;-88
2021/12/24 08:30:36;;;;;;;1.25;1.15;;;7.80;99.90;;;;;;5117280;28;20041;-83
2021/12/24 08:33:02;;;;;;;0.60;0.60;;;7.80;99.90;;;;;;5116895;28;20172;-81
2021/12/24 08:35:28;;;;;;;0.60;0.60;;;7.80;99.90;;;;;;5115082;28;20074;-83
2021/12/24 08:37:54;;;;;;;0.75;0.75;;;7.80;99.90;;;;;;5150100;27;20031;-80
2021/12/24 08:40:20;;;;;;;0.50;0.50;;;7.80;99.90;;;;;;5115943;28;20050;-82
2021/12/24 08:42:46;;;;;;;0.65;0.50;;;7.80;99.90;;;;;;5116500;28;20506;-81
2021/12/24 08:45:12;;;;;;;0.40;0.40;;;7.80;99.90;;;;;;5116640;28;20046;-81
2021/12/24 08:47:38;;;;;;;0.70;0.70;;;7.90;99.90;;;;;;5115338;28;20039;-80
2021/12/24 08:50:07;;;;;;;0.70;0.70;;;7.90;99.90;;;;;;5116530;28;20043;-80
2021/12/24 08:52:32;;;;;;;0.88;0.65;;;7.90;99.90;;;;;;5116577;28;20064;-80
2021/12/24 08:54:58;;;;;;;0.70;0.70;;;7.80;99.90;;;;;;5116571;28;20053;-79
2021/12/24 08:57:24;;;;;;;0.50;0.50;;;7.80;99.90;;;;;;5116369;28;20039;-79
2021/12/24 08:59:49;;;;;;;1.63;1.13;;;7.90;99.90;;;;;;5116308;28;20040;-82
2021/12/24 09:02:15;;;;;;;0.93;0.70;;;7.90;99.90;;;;;;5115738;28;20044;-82
2021/12/24 09:04:41;;;;;;;0.77;0.77;;;7.90;99.90;;;;;;5149598;27;20039;-78
2021/12/24 09:07:06;;;;;;;0.88;0.88;;;7.90;99.90;;;;;;5116681;28;20983;-81
2021/12/24 09:09:32;;;;;;;1.05;0.70;;;7.90;99.90;;;;;;5116268;28;20043;-80
2021/12/24 09:11:57;;;;;;;0.55;0.55;;;7.90;99.90;;;;;;5116170;28;20388;-83
2021/12/24 09:14:25;;;;;;;0.60;0.60;;;7.90;99.90;;;;;;5116107;28;20043;-82
2021/12/24 09:16:51;;;;;;;0.93;0.85;;;7.90;99.90;;;;;;5116016;28;20096;-78
2021/12/24 09:19:22;;;;;;;0.60;0.60;;;8.00;99.90;;;;;;5115975;28;20039;-80
2021/12/24 09:21:48;;;;;;;0.50;0.50;;;7.90;99.90;;;;;;5115973;27;20059;-80
2021/12/24 09:24:13;;;;;;;9.25;1.25;;;8.00;99.90;;;;;;5115161;28;20039;-78
2021/12/24 09:26:39;;;;;;;0.50;0.50;;;8.00;99.90;;;;;;5115853;28;20047;-81
2021/12/24 09:29:08;;;;;;;4.45;1.85;;;8.80;99.90;;;;;;5116241;28;20075;-80
2021/12/24 09:31:34;;;;;;;2.50;2.15;;;8.00;99.90;;;;;;5115799;28;20093;-81
2021/12/24 09:34:00;;;;;;;0.90;0.90;;;8.00;99.90;;;;;;5115655;28;20086;-78
2021/12/24 09:36:28;;;;;;;0.70;0.70;;;8.00;99.90;;;;;;5115767;28;20503;-79
2021/12/24 09:39:01;;;;;;;0.45;0.45;;;7.90;99.90;;;;;;5115479;28;20031;-80
2021/12/24 09:41:26;;;;;;;4.53;1.25;;;7.90;99.90;;;;;;5115501;28;20043;-80
2021/12/24 09:43:58;;;;;;;0.80;0.75;;;7.90;99.90;;;;;;5114363;28;20043;-80
2021/12/24 09:46:25;;;;;;;0.70;0.70;;;7.90;99.90;;;;;;5115538;28;20051;-80
2021/12/24 09:48:51;;;;;;;0.50;0.50;;;7.90;99.90;;;;;;5115154;28;20040;-84
2021/12/24 09:51:17;;;;;;;0.65;0.65;;;7.90;99.90;;;;;;5115031;28;20423;-80
2021/12/24 09:53:42;;;;;;;3.67;1.07;;;7.90;99.90;;;;;;5097365;28;20082;-84
2021/12/24 09:56:08;;;;;;;0.82;0.82;;;7.90;99.90;;;;;;5115299;28;20083;-82
2021/12/24 09:58:34;;;;;;;0.50;0.50;;;8.00;99.90;;;;;;5115265;28;20514;-80
2021/12/24 10:01:00;;;;;;;0.63;0.60;;;7.90;99.90;;;;;;5115207;28;20047;-80
2021/12/24 10:03:34;;;;;;;0.50;0.50;;;8.00;99.90;;;;;;5115080;28;20090;-81
2021/12/24 10:06:01;;;;;;;0.90;0.90;;;8.00;99.90;;;;;;5115387;28;20053;-79
2021/12/24 10:08:28;;;;;;;0.93;0.77;;;8.00;99.90;;;;;;5115591;28;20039;-80
2021/12/24 10:11:04;;;;;;;;;;;8.10;99.90;;;;;;5116596;28;20060;-81
2021/12/24 10:13:43;;;;;;;0.52;0.52;;;8.10;99.90;;;;;;5115923;28;19943;-80
2021/12/24 10:16:20;;;;;;;0.75;0.60;;;8.10;99.90;;;;;;5114583;28;20044;-79
2021/12/24 10:18:48;;;;;;;0.50;0.50;;;8.10;99.90;;;;;;5115841;28;20169;-79
2021/12/24 10:21:20;;;;;;;0.55;0.55;;;8.20;99.90;;;;;;5113776;28;20044;-80
2021/12/24 10:23:51;;;;;;;0.47;0.47;;;8.10;99.90;;;;;;5114874;28;20043;-80
2021/12/24 10:26:19;;;;;;;0.55;0.55;;;8.10;99.90;;;;;;5114628;28;20052;-82
2021/12/24 10:29:00;;;;;;;0.57;0.57;;;8.10;99.90;;;;;;5115074;28;20126;-81
2021/12/24 10:31:32;;;;;;;0.50;0.50;;;8.20;99.90;;;;;;5114541;28;20079;-82
2021/12/24 10:34:13;;;;;;;0.60;0.60;;;8.20;99.90;;;;;;5114704;28;20047;-80
2021/12/24 10:37:01;;;;;;;0.40;0.40;;;8.20;99.90;;;;;;5114575;28;20387;-86
2021/12/24 10:39:39;;;;;;;0.50;0.50;;;8.10;99.90;;;;;;5113525;28;20039;-84
2021/12/24 10:42:19;;;;;;;0.75;0.75;;;8.20;99.90;;;;;;5113679;28;20089;-81
2021/12/24 10:44:47;;;;;;;0.82;0.82;;;8.20;99.90;;;;;;5114634;28;20075;-82
2021/12/24 10:47:18;;;;;;;0.80;0.80;;;8.20;99.90;;;;;;5114565;28;20126;-81
2021/12/24 10:55:26;;;;;;;0.55;0.55;;;8.10;99.90;;;;;;5114498;28;20498;-80
2021/12/24 10:57:53;;;;;;;1.40;1.23;;;8.10;99.90;;;;;;5113858;28;20498;-86
2021/12/24 11:00:26;;;;;;;0.77;0.65;;;8.10;99.90;;;;;;5114236;28;20040;-86
2021/12/24 11:02:59;;;;;;;3.70;2.25;;;8.10;99.90;;;;;;5114332;28;20400;-82
2021/12/24 11:05:38;;;;;;;15.73;1.40;;;8.20;99.90;;;;;;5114373;28;20036;-80
2021/12/24 11:08:09;;;;;;;0.50;0.50;;;8.20;99.90;;;;;;5114202;28;20039;-80
2021/12/24 11:10:45;;;;;;;0.50;0.50;;;8.20;99.90;;;;;;5114683;28;20112;-82
2021/12/24 11:13:20;;;;;;;0.52;0.52;;;8.20;99.90;;;;;;5114319;28;20051;-82
2021/12/24 11:15:48;;;;;;;1.08;1.08;;;8.30;99.90;;;;;;5114279;28;20405;-81
2021/12/24 11:18:19;;;;;;;0.50;0.50;;;8.30;99.90;;;;;;5113903;28;20433;-83
2021/12/24 11:20:50;;;;;;;1.50;1.38;;;8.60;99.90;;;;;;5113983;28;20048;-80
2021/12/24 11:23:17;;;;;;;0.63;0.60;;;8.30;99.90;;;;;;5096282;28;20047;-81
2021/12/24 11:25:49;;;;;;;1.05;1.02;;;8.30;99.90;;;;;;5113945;28;20048;-82
2021/12/24 11:28:16;;;;;;;0.65;0.65;;;8.30;99.90;;;;;;5113997;28;20046;-77
2021/12/24 11:30:44;;;;;;;0.88;0.88;;;8.30;99.90;;;;;;5113814;28;20399;-80
2021/12/24 11:33:14;;;;;;;0.57;0.57;;;8.30;99.90;;;;;;5113968;28;20052;-82
2021/12/24 11:35:41;;;;;;;1.27;0.85;;;8.30;99.90;;;;;;5114347;28;20048;-84
2021/12/24 11:38:09;;;;;;;0.50;0.50;;;8.30;99.90;;;;;;5112604;28;20036;-82
2021/12/24 11:40:35;;;;;;;0.55;0.55;;;8.30;99.90;;;;;;5113871;28;20081;-80
2021/12/24 11:43:04;;;;;;;0.40;0.40;;;8.30;99.90;;;;;;5113793;28;20449;-81
2021/12/24 11:45:32;;;;;;;0.50;0.50;;;8.20;99.90;;;;;;5112819;28;20044;-82
2021/12/24 11:47:59;;;;;;;0.60;0.60;;;8.20;99.90;;;;;;5114058;28;20039;-81
2021/12/24 11:50:26;;;;;;;0.50;0.50;;;7.90;99.90;;;;;;5113930;28;20044;-81
2021/12/24 11:52:59;;;;;;;0.40;0.40;;;7.60;99.90;;;;;;5113800;28;20281;-81
2021/12/24 11:55:30;;;;;;;0.50;0.50;;;7.40;99.90;;;;;;5113954;28;20051;-81
2021/12/24 11:57:59;;;;;;;0.43;0.43;;;7.20;99.90;;;;;;5112955;28;20043;-81
2021/12/24 12:00:30;;;;;;;0.50;0.50;;;7.10;99.90;;;;;;5113624;28;20079;-80
2021/12/24 12:02:56;;;;;;;0.50;0.50;;;6.80;99.90;;;;;;5114170;28;20047;-81
2021/12/24 12:05:27;;;;;;;0.50;0.50;;;6.70;99.90;;;;;;5146779;27;20047;-82
2021/12/24 12:08:25;;;;;;;1.23;1.13;;;6.60;99.90;;;;;;5113653;28;20036;-80
2021/12/24 12:11:04;;;;;;;0.50;0.50;;;6.60;99.90;;;;;;5115013;28;20399;-81
2021/12/24 12:13:37;;;;;;;0.50;0.50;;;6.50;99.90;;;;;;5118129;28;20383;-81
2021/12/24 12:16:03;;;;;;;0.93;0.93;;;6.50;99.90;;;;;;5117219;28;20135;-82
2021/12/24 12:18:32;;;;;;;0.50;0.50;;;6.50;99.90;;;;;;5117144;28;20450;-83
2021/12/24 12:21:13;;;;;;;0.50;0.50;;;6.50;99.90;;;;;;5117043;28;20069;-80
2021/12/24 12:26:51;;;;;;;0.50;0.50;;;6.40;99.90;;;;;;5108154;28;20560;-84
2021/12/24 12:29:32;;;;;;;0.60;0.60;;;6.40;99.90;;;;;;5115928;28;20487;-78
2021/12/24 12:32:27;;;;;;;0.60;0.60;;;6.40;99.90;;;;;;5116813;28;20044;-82
2021/12/24 12:34:58;;;;;;;0.50;0.50;;;6.40;99.90;;;;;;5115954;28;20089;-79
2021/12/24 12:37:41;;;;;;;0.50;0.50;;;6.30;99.90;;;;;;5116637;28;20056;-80
2021/12/24 12:40:28;;;;;;;0.50;0.50;;;6.40;99.90;;;;;;5117125;28;20081;-80
2021/12/24 12:42:57;;;;;;;0.50;0.50;;;6.30;99.90;;;;;;5117283;28;20048;-79
2021/12/24 12:45:43;;;;;;;0.47;0.47;;;6.30;99.90;;;;;;5116742;28;20098;-82
2021/12/24 12:48:12;;;;;;;0.50;0.50;;;6.30;99.90;;;;;;5116996;28;20078;-82
2021/12/24 12:50:49;;;;;;;0.50;0.50;;;6.30;99.90;;;;;;5116771;28;20040;-82
2021/12/24 12:53:30;;;;;;;0.50;0.50;;;6.20;99.90;;;;;;5117700;28;20056;-82
2021/12/24 12:56:30;;;;;;;0.50;0.50;;;6.30;99.90;;;;;;5116597;28;20463;-82
2021/12/24 12:59:03;;;;;;;0.50;0.50;;;6.20;99.90;;;;;;5116508;28;20046;-84
2021/12/24 13:01:30;;;;;;;0.50;0.50;;;6.20;99.90;;;;;;5145727;27;20043;-83
2021/12/24 13:03:55;;;;;;;0.55;0.55;;;6.20;99.90;;;;;;5105619;28;20046;-83
2021/12/24 13:06:25;;;;;;;0.50;0.50;;;6.20;99.90;;;;;;5116459;28;20055;-82
2021/12/24 13:09:05;;;;;;;0.50;0.50;;;6.20;99.90;;;;;;5115995;28;20046;-83
2021/12/24 13:11:36;;;;;;;0.50;0.50;;;6.20;99.90;;;;;;5116225;28;20134;-81
2021/12/24 13:14:03;;;;;;;0.50;0.50;;;6.20;99.90;;;;;;5114909;28;20044;-82
2021/12/24 13:16:35;;;;;;;0.50;0.50;;;6.20;99.90;;;;;;5115932;28;20035;-83
2021/12/24 13:19:25;;;;;;;0.50;0.50;;;6.20;99.90;;;;;;5114943;28;20051;-82
2021/12/24 13:22:28;;;;;;;0.68;0.68;;;6.20;99.90;;;;;;5115328;28;20051;-82
2021/12/24 13:25:00;;;;;;;0.60;0.60;;;6.20;99.90;;;;;;5116065;28;20047;-82
2021/12/24 13:27:33;;;;;;;0.50;0.50;;;6.20;99.90;;;;;;5115748;28;20043;-84
2021/12/24 13:30:08;;;;;;;0.55;0.55;;;6.10;99.90;;;;;;5114618;28;20050;-84
2021/12/24 13:32:39;;;;;;;0.50;0.50;;;6.10;99.90;;;;;;5115685;28;20134;-81
2021/12/24 13:35:05;;;;;;;0.73;0.73;;;6.10;99.90;;;;;;5115831;28;20047;-81
2021/12/24 13:37:32;;;;;;;0.70;0.70;;;6.00;99.90;;;;;;5115559;27;20088;-82
2021/12/24 13:39:58;;;;;;;0.50;0.50;;;6.00;99.90;;;;;;5148814;27;20130;-83
2021/12/24 13:42:23;;;;;;;0.50;0.50;;;6.10;99.90;;;;;;5115256;28;20086;-83
2021/12/24 13:45:01;;;;;;;1.17;1.08;;;6.30;99.90;;;;;;5115329;28;20126;-82
2021/12/24 13:47:40;;;;;;;0.80;0.70;;;6.00;99.90;;;;;;5115319;28;20503;-83
2021/12/24 13:50:31;;;;;;;0.57;0.57;;;6.00;99.90;;;;;;5115512;28;20505;-83
2021/12/24 13:55:46;;;;;;;0.50;0.50;;;6.10;99.90;;;;;;5115156;28;20056;-83
2021/12/24 13:58:14;;;;;;;0.50;0.50;;;6.00;99.90;;;;;;5115171;28;20384;-82
2021/12/24 14:01:01;;;;;;;0.60;0.60;;;6.00;99.90;;;;;;5115199;28;20044;-83
2021/12/24 14:03:30;;;;;;;0.50;0.50;;;6.00;99.90;;;;;;5114830;28;20051;-83
2021/12/24 14:06:00;;;;;;;0.50;0.50;;;6.10;99.90;;;;;;5113722;28;20158;-81
2021/12/24 14:08:30;;;;;;;0.50;0.50;;;6.10;99.90;;;;;;5115195;28;20055;-82
2021/12/24 14:11:10;;;;;;;0.60;0.60;;;6.10;99.90;;;;;;5113800;28;20043;-82
2021/12/24 14:13:41;;;;;;;0.88;0.80;;;6.10;99.90;;;;;;5113881;28;20051;-81
2021/12/24 14:16:30;;;;;;;0.93;0.93;;;6.10;99.90;;;;;;5113620;28;20075;-81
2021/12/24 14:19:14;;;;;;;;;;;6.10;99.90;;;;;;5114138;28;20042;-82
2021/12/24 14:21:45;;;;;;;0.70;0.70;;;6.10;99.90;;;;;;5114955;28;19931;-81
2021/12/24 14:24:29;;;;;;;0.60;0.60;;;6.10;99.90;;;;;;5114442;28;20047;-81
2021/12/24 14:27:03;;;;;;;0.50;0.50;;;6.10;99.90;;;;;;5114752;27;20047;-81
2021/12/24 14:29:41;;;;;;;0.50;0.50;;;6.60;99.90;;;;;;5114739;28;20044;-81
2021/12/24 14:32:09;;;;;;;0.60;0.60;;;6.10;99.90;;;;;;5113994;28;20395;-81
2021/12/24 14:34:43;;;;;;;0.50;0.50;;;6.10;99.90;;;;;;5114512;28;20121;-81
2021/12/24 14:37:19;;;;;;;0.50;0.50;;;6.10;99.90;;;;;;5114100;28;20043;-81
2021/12/24 14:39:48;;;;;;;0.50;0.50;;;6.10;99.90;;;;;;5113318;28;20035;-81
2021/12/24 14:42:20;;;;;;;0.50;0.50;;;6.10;99.90;;;;;;5114492;28;20040;-82
2021/12/24 14:44:48;;;;;;;0.50;0.50;;;6.10;99.90;;;;;;5114690;28;20035;-82
2021/12/24 14:47:19;;;;;;;0.68;0.68;;;6.10;99.90;;;;;;5114398;28;20080;-81
2021/12/24 14:49:44;;;;;;;1.05;0.90;;;6.10;99.90;;;;;;5113842;28;20039;-81
2021/12/24 14:52:17;;;;;;;0.70;0.70;;;6.10;99.90;;;;;;5114229;28;20074;-79
2021/12/24 14:55:05;;;;;;;0.50;0.50;;;6.10;99.90;;;;;;5114348;28;20056;-82
2021/12/24 14:57:32;;;;;;;;;;;6.10;99.90;;;;;;5114521;28;20043;-80
2021/12/24 15:00:05;;;;;;;0.50;0.50;;;6.00;99.90;;;;;;5114310;28;19920;-81